Avalon Express — WDD7919 — position and weather

sailwx.info

Track history (hours):
 
Tides and Currents Weather Stations Pressure Air Temp Water Temp Dewpoint Dewpoint Depression Visibility Wind Speed Wind Dir Waves Ship Positions

Avalon Express

Owner: RGWT INC, San Pedro, CA. More information available from US FCC via Universal Licensing System and Coast Guard Vessel Documentation Center.

Last reported at 2018-Jun-23 02:30 UTC. Time now 2018-Jun-23 02:56 UTC.
Position N 33°45' W 118°16'.

Length 37 m; draft 3 m.

Type: High speed craft. MMSI: 367192940.

Date/timePositionNaut miles runAvg speedWind from/ knotsBaromVisibWave heightAir tempDewpointWater temp
2018-Jun-23 02:30N 33°45' W 118°16'0 0.0
2018-Jun-23 02:00N 33°45' W 118°16'2 3.2
2018-Jun-23 01:31N 33°43' W 118°16'1223.2
2018-Jun-23 01:00N 33°32' W 118°17'11 8.1
2018-Jun-22 23:42N 33°21' W 118°19'525.8
2018-Jun-22 23:30N 33°26' W 118°18'1325.9
2018-Jun-22 23:01N 33°39' W 118°16'612.6
2018-Jun-22 22:30N 33°45' W 118°16'0 0.0
2018-Jun-22 22:00N 33°45' W 118°16'0 0.0
2018-Jun-22 21:30N 33°45' W 118°16'0 0.0
2018-Jun-22 21:00N 33°45' W 118°16'2 4.7
2018-Jun-22 20:31N 33°43' W 118°15'2113.4
2018-Jun-22 18:58N 33°22' W 118°19'1124.9
2018-Jun-22 18:30N 33°34' W 118°17'1020.0
2018-Jun-22 18:00N 33°44' W 118°16'1 2.7
2018-Jun-22 17:31N 33°45' W 118°16'0 0.0
2018-Jun-22 17:00N 33°45' W 118°16'0 0.2
2018-Jun-22 16:30N 33°45' W 118°16'0 0.0
2018-Jun-22 16:00N 33°45' W 118°16'0 0.0
2018-Jun-22 15:30N 33°45' W 118°16'0 0.1
2018-Jun-22 15:01N 33°45' W 118°16'0 0.1
2018-Jun-22 14:30N 33°45' W 118°16'0 0.0
2018-Jun-22 14:00N 33°45' W 118°16'0 0.0
2018-Jun-22 13:31N 33°45' W 118°16'0 0.1
2018-Jun-22 13:00N 33°45' W 118°16'0 0.0
2018-Jun-22 02:49N 33°45' W 118°16'0 0.2
2018-Jun-22 02:30N 33°45' W 118°16'0 0.2
2018-Jun-22 02:00N 33°45' W 118°16'1 2.6
2018-Jun-22 01:31N 33°44' W 118°16'1122.6
2018-Jun-22 01:00N 33°32' W 118°17'1110.9
2018-Jun-22 00:01N 33°22' W 118°19'1010.3
2018-Jun-21 23:01N 33°27' W 118°30'015.3
2018-Jun-21 23:00N 33°27' W 118°29'1225.5
2018-Jun-21 22:31N 33°37' W 118°20'815.6
2018-Jun-21 22:01N 33°44' W 118°17'1 1.5
2018-Jun-21 21:31N 33°45' W 118°16'0 0.0
2018-Jun-21 21:01N 33°45' W 118°16'3 6.5
2018-Jun-21 20:31N 33°42' W 118°16'1223.3
2018-Jun-21 20:00N 33°30' W 118°18'9 7.9
2018-Jun-21 18:54N 33°21' W 118°19'1024.9
2018-Jun-21 18:30N 33°31' W 118°17'1223.5
2018-Jun-21 18:00N 33°43' W 118°16'2 3.7
2018-Jun-21 17:31N 33°45' W 118°16'0 0.2
2018-Jun-21 17:01N 33°45' W 118°16'0 0.0
2018-Jun-21 16:31N 33°45' W 118°16'0 0.0
2018-Jun-21 16:01N 33°45' W 118°16'0 0.0
2018-Jun-21 15:31N 33°45' W 118°16'0 0.0
2018-Jun-21 15:01N 33°45' W 118°16'0 0.0
2018-Jun-21 14:30N 33°45' W 118°16'0 0.0
2018-Jun-21 14:01N 33°45' W 118°16'0 0.1
2018-Jun-21 13:31N 33°45' W 118°16'0 0.0
2018-Jun-21 13:01N 33°45' W 118°16'0 0.1
2018-Jun-21 12:31N 33°45' W 118°16'0 0.0
2018-Jun-21 12:01N 33°45' W 118°16'0 0.0
2018-Jun-21 02:42N 33°45' W 118°16'0 0.0
2018-Jun-21 02:30N 33°45' W 118°16'0 0.0
2018-Jun-21 02:00N 33°45' W 118°16'1 2.7
2018-Jun-21 01:31N 33°44' W 118°16'1122.3
2018-Jun-21 01:00N 33°32' W 118°17'1111.4
2018-Jun-21 00:03N 33°21' W 118°19'125.3
2018-Jun-21 00:00N 33°22' W 118°20'9 8.9
2018-Jun-20 22:59N 33°29' W 118°28'1225.6
2018-Jun-20 22:30N 33°38' W 118°19'713.7
2018-Jun-20 22:00N 33°45' W 118°17'0 0.6
2018-Jun-20 21:30N 33°45' W 118°16'0 0.0
2018-Jun-20 21:00N 33°45' W 118°16'2 4.4
2018-Jun-20 20:31N 33°43' W 118°15'2213.4
2018-Jun-20 18:54N 33°22' W 118°19'1024.8
2018-Jun-20 18:31N 33°31' W 118°17'1223.6
2018-Jun-20 18:00N 33°43' W 118°16'2 4.1
2018-Jun-20 17:30N 33°45' W 118°16'0 0.0
2018-Jun-20 17:00N 33°45' W 118°16'0 0.2
2018-Jun-20 16:30N 33°45' W 118°16'0 0.0
2018-Jun-20 16:00N 33°45' W 118°16'0 0.0
2018-Jun-20 15:30N 33°45' W 118°16'0 0.0
2018-Jun-20 15:00N 33°45' W 118°16'0 0.0
2018-Jun-20 14:30N 33°45' W 118°16'0 0.0
2018-Jun-20 14:00N 33°45' W 118°16'0 0.1
2018-Jun-20 13:30N 33°45' W 118°16'0 0.1
2018-Jun-20 13:00N 33°45' W 118°16'0 0.0
2018-Jun-20 12:30N 33°45' W 118°16'0 0.0
2018-Jun-20 12:00N 33°45' W 118°16'0 0.0
2018-Jun-20 11:30N 33°45' W 118°16'0 0.0
2018-Jun-20 02:56N 33°45' W 118°16'0 0.3
2018-Jun-20 02:30N 33°45' W 118°16'0 0.0
2018-Jun-20 02:00N 33°45' W 118°16'2 3.3
2018-Jun-20 01:30N 33°43' W 118°16'1122.6
2018-Jun-20 01:00N 33°32' W 118°17'10 9.5
2018-Jun-19 23:59N 33°23' W 118°20'9 7.5
2018-Jun-19 22:51N 33°30' W 118°26'824.8
2018-Jun-19 22:30N 33°36' W 118°19'816.6
2018-Jun-19 22:00N 33°44' W 118°17'1 1.3
2018-Jun-19 21:30N 33°45' W 118°16'0 0.0
2018-Jun-19 21:01N 33°45' W 118°16'3 5.7
2018-Jun-19 20:31N 33°42' W 118°15'2214.3
2018-Jun-19 19:00N 33°21' W 118°19'1123.1
2018-Jun-19 18:30N 33°32' W 118°17'1122.5
2018-Jun-19 18:00N 33°43' W 118°16'1 3.0
2018-Jun-19 17:30N 33°45' W 118°16'0 0.0
2018-Jun-19 17:00N 33°45' W 118°16'0 0.2
2018-Jun-19 16:30N 33°45' W 118°16'0 0.1
2018-Jun-19 16:00N 33°45' W 118°16'0 0.1
2018-Jun-19 15:30N 33°45' W 118°16'0 0.1
2018-Jun-19 15:00N 33°45' W 118°16'0 0.0
2018-Jun-19 14:30N 33°45' W 118°16'0 0.1
2018-Jun-19 14:00N 33°45' W 118°16'0 0.0
2018-Jun-19 13:30N 33°45' W 118°16'0 0.0
2018-Jun-19 13:00N 33°45' W 118°16'0 0.1
2018-Jun-19 12:30N 33°45' W 118°16'0 0.0
2018-Jun-19 12:00N 33°45' W 118°16'0 0.0
2018-Jun-19 03:45N 33°45' W 118°16'0 0.0
2018-Jun-19 03:30N 33°45' W 118°16'0 0.2
2018-Jun-19 03:00N 33°45' W 118°16'1 2.0
2018-Jun-19 02:30N 33°44' W 118°16'14 4.8
2018-Jun-18 23:38N 33°31' W 118°24'325.3
2018-Jun-18 23:30N 33°34' W 118°21'1121.6
2018-Jun-18 23:01N 33°44' W 118°16'1 2.8
2018-Jun-18 22:31N 33°45' W 118°16'0 0.0
2018-Jun-18 22:00N 33°45' W 118°16'4 9.0
2018-Jun-18 21:31N 33°40' W 118°16'1825.3
2018-Jun-18 20:47N 33°23' W 118°21'6 7.9
2018-Jun-18 20:03N 33°28' W 118°18'125.8
2018-Jun-18 20:00N 33°29' W 118°18'1225.2
2018-Jun-18 19:31N 33°41' W 118°15'4 7.2
2018-Jun-18 19:00N 33°45' W 118°16'0 0.0
2018-Jun-18 18:30N 33°45' W 118°16'0 0.2
2018-Jun-18 18:00N 33°45' W 118°16'0 0.0
2018-Jun-18 17:30N 33°45' W 118°16'0 0.0
2018-Jun-18 17:00N 33°45' W 118°16'0 0.0
2018-Jun-18 16:30N 33°45' W 118°16'0 0.0
2018-Jun-18 16:00N 33°45' W 118°16'0 0.1
2018-Jun-18 15:30N 33°45' W 118°16'0 0.1
2018-Jun-18 15:00N 33°45' W 118°16'0 0.0
2018-Jun-18 14:30N 33°45' W 118°16'0 0.0
2018-Jun-18 14:00N 33°45' W 118°16'0 0.0
2018-Jun-18 13:30N 33°45' W 118°16'0 0.0
2018-Jun-18 04:16N 33°45' W 118°16'0 0.4
2018-Jun-18 04:01N 33°45' W 118°16'0 0.1
2018-Jun-18 03:31N 33°45' W 118°16'0 0.1
2018-Jun-18 03:01N 33°45' W 118°16'1 2.7
2018-Jun-18 02:31N 33°44' W 118°16'13 6.9
2018-Jun-18 00:36N 33°32' W 118°24'226.0
2018-Jun-18 00:30N 33°34' W 118°23'1121.7
2018-Jun-18 00:00N 33°43' W 118°16'2 3.0
2018-Jun-17 23:30N 33°45' W 118°16'0 0.0
2018-Jun-17 23:00N 33°45' W 118°16'0 0.0
2018-Jun-17 22:30N 33°45' W 118°16'4 7.3
2018-Jun-17 22:01N 33°41' W 118°16'13 7.5
2018-Jun-17 20:17N 33°31' W 118°25'725.6
2018-Jun-17 20:00N 33°37' W 118°20'816.3
2018-Jun-17 19:30N 33°45' W 118°17'0 0.5
2018-Jun-17 19:00N 33°45' W 118°16'0 0.0
2018-Jun-17 18:30N 33°45' W 118°16'0 0.0
2018-Jun-17 18:00N 33°45' W 118°16'4 8.1
2018-Jun-17 17:30N 33°41' W 118°16'12 7.2
2018-Jun-17 15:49N 33°31' W 118°25'825.8
2018-Jun-17 15:30N 33°37' W 118°19'815.4
2018-Jun-17 15:00N 33°45' W 118°17'0 0.3
2018-Jun-17 14:30N 33°45' W 118°16'0 0.0
2018-Jun-17 14:00N 33°45' W 118°16'0 0.0
2018-Jun-17 13:30N 33°45' W 118°16'0 0.0
2018-Jun-17 08:31N 33°45' W 118°16'0 0.0
2018-Jun-17 08:30N 33°45' W 118°16'0 0.0
2018-Jun-17 08:00N 33°45' W 118°16'0 0.0
2018-Jun-17 07:30N 33°45' W 118°16'0 0.0
2018-Jun-17 07:00N 33°45' W 118°16'3 6.3
2018-Jun-17 06:31N 33°42' W 118°15'14 8.1
2018-Jun-17 04:46N 33°28' W 118°19'725.7
2018-Jun-17 04:31N 33°35' W 118°17'918.3
2018-Jun-17 04:01N 33°44' W 118°17'1 1.8
2018-Jun-17 03:30N 33°45' W 118°16'4 8.0
2018-Jun-17 03:00N 33°41' W 118°15'2012.0
2018-Jun-17 01:19N 33°21' W 118°19'822.3
2018-Jun-17 00:58N 33°29' W 118°18'1224.8
2018-Jun-17 00:31N 33°40' W 118°15'5 9.8
2018-Jun-17 00:00N 33°45' W 118°16'0 0.0
2018-Jun-16 23:30N 33°45' W 118°16'0 0.0
2018-Jun-16 23:00N 33°45' W 118°16'0 0.0
2018-Jun-16 22:30N 33°45' W 118°16'0 0.0
2018-Jun-16 22:00N 33°45' W 118°16'0 0.0
2018-Jun-16 21:30N 33°45' W 118°16'714.5
2018-Jun-16 21:00N 33°38' W 118°16'12 8.7
2018-Jun-16 19:34N 33°25' W 118°19'225.4
2018-Jun-16 19:30N 33°27' W 118°18'1225.0
2018-Jun-16 19:01N 33°39' W 118°16'611.4
2018-Jun-16 18:30N 33°45' W 118°16'1 2.4
2018-Jun-16 18:00N 33°44' W 118°16'611.6
2018-Jun-16 17:31N 33°38' W 118°17'10 5.9
2018-Jun-16 15:53N 33°31' W 118°26'924.9
2018-Jun-16 15:30N 33°39' W 118°19'612.9
2018-Jun-16 15:00N 33°45' W 118°16'0 0.1
2018-Jun-16 14:30N 33°45' W 118°16'0 0.0
2018-Jun-16 14:00N 33°45' W 118°16'0 0.0
2018-Jun-16 13:30N 33°45' W 118°16'0 0.0
2018-Jun-16 07:06N 33°45' W 118°16'0 0.0
2018-Jun-16 07:00N 33°45' W 118°16'0 0.0
2018-Jun-16 06:31N 33°45' W 118°16'0 0.0
2018-Jun-16 06:01N 33°45' W 118°16'714.0
2018-Jun-16 05:30N 33°38' W 118°15'1625.7
2018-Jun-16 04:53N 33°22' W 118°19'2 3.5
2018-Jun-16 04:24N 33°21' W 118°19'921.7
2018-Jun-16 04:00N 33°27' W 118°26'3 5.3
2018-Jun-16 03:22N 33°27' W 118°30'925.5
2018-Jun-16 03:00N 33°35' W 118°23'1121.3
2018-Jun-16 02:30N 33°43' W 118°16'1 2.9
2018-Jun-16 02:00N 33°45' W 118°16'0 0.0
2018-Jun-16 01:30N 33°45' W 118°16'0 0.0
2018-Jun-16 01:00N 33°45' W 118°16'0 0.9
2018-Jun-16 00:30N 33°44' W 118°17'816.6
2018-Jun-16 00:00N 33°36' W 118°19'13 9.4
2018-Jun-15 22:37N 33°27' W 118°30'523.2
2018-Jun-15 22:26N 33°30' W 118°26'1125.5
2018-Jun-15 22:00N 33°39' W 118°18'612.8
2018-Jun-15 21:31N 33°45' W 118°16'0 0.0
2018-Jun-15 21:00N 33°45' W 118°16'0 0.0
2018-Jun-15 20:30N 33°45' W 118°16'3 5.5
2018-Jun-15 20:01N 33°42' W 118°15'15 7.3
2018-Jun-15 17:57N 33°31' W 118°26'1124.9
2018-Jun-15 17:30N 33°39' W 118°18'612.0
2018-Jun-15 17:00N 33°45' W 118°16'0 0.0
2018-Jun-15 16:30N 33°45' W 118°16'0 0.0
2018-Jun-15 16:00N 33°45' W 118°16'0 0.0
2018-Jun-15 15:30N 33°45' W 118°16'0 0.0
2018-Jun-15 15:00N 33°45' W 118°16'0 0.0
2018-Jun-15 14:30N 33°45' W 118°16'0 0.0
2018-Jun-15 14:00N 33°45' W 118°16'0 0.0
2018-Jun-15 13:30N 33°45' W 118°16'0 0.0
2018-Jun-15 13:00N 33°45' W 118°16'0 0.0
2018-Jun-15 12:30N 33°45' W 118°16'0 0.0
2018-Jun-15 03:14N 33°45' W 118°16'0 0.0
2018-Jun-15 03:00N 33°45' W 118°16'0 0.0
2018-Jun-15 02:30N 33°45' W 118°16'0 0.0
2018-Jun-15 02:00N 33°45' W 118°16'2 3.0
2018-Jun-15 01:31N 33°43' W 118°16'1122.6
2018-Jun-15 01:01N 33°32' W 118°17'1223.0
2018-Jun-15 00:30N 33°21' W 118°19'3 5.4
2018-Jun-15 00:00N 33°23' W 118°21'816.2
2018-Jun-14 23:29N 33°27' W 118°30'3 7.2
2018-Jun-14 23:00N 33°29' W 118°27'1325.2
2018-Jun-14 22:31N 33°39' W 118°18'611.6
2018-Jun-14 22:00N 33°45' W 118°16'0 0.1
2018-Jun-14 21:30N 33°45' W 118°16'0 0.0
2018-Jun-14 21:00N 33°45' W 118°16'0 0.0
2018-Jun-14 20:30N 33°45' W 118°16'0 0.0
2018-Jun-14 20:00N 33°45' W 118°16'0 0.0
2018-Jun-14 19:30N 33°45' W 118°16'510.4
2018-Jun-14 19:00N 33°40' W 118°17'1525.9
2018-Jun-14 18:26N 33°28' W 118°28'2 3.0
2018-Jun-14 17:46N 33°27' W 118°30'621.3
2018-Jun-14 17:30N 33°25' W 118°23'610.1
2018-Jun-14 16:58N 33°21' W 118°19'1022.4
2018-Jun-14 16:30N 33°31' W 118°17'1224.4
2018-Jun-14 16:01N 33°43' W 118°16'2 4.3
2018-Jun-14 15:30N 33°45' W 118°16'0 0.0
2018-Jun-14 15:00N 33°45' W 118°16'0 0.0
2018-Jun-14 14:30N 33°45' W 118°16'0 0.0
2018-Jun-14 14:00N 33°45' W 118°16'0 0.0
2018-Jun-14 13:30N 33°45' W 118°16'0 0.0
2018-Jun-14 13:00N 33°45' W 118°16'0 0.0
2018-Jun-14 12:30N 33°45' W 118°16'0 0.0
2018-Jun-14 03:22N 33°45' W 118°16'0 0.0
2018-Jun-14 03:00N 33°45' W 118°16'0 0.0
2018-Jun-14 02:30N 33°45' W 118°16'0 0.0
2018-Jun-14 02:00N 33°45' W 118°16'3 6.7
2018-Jun-14 01:30N 33°42' W 118°15'1121.3
2018-Jun-14 01:00N 33°31' W 118°17'1119.9
2018-Jun-14 00:28N 33°21' W 118°19'3 5.6
2018-Jun-14 00:00N 33°23' W 118°21'8 8.7
2018-Jun-13 23:03N 33°27' W 118°29'112.2
2018-Jun-13 23:00N 33°27' W 118°29'1225.5
2018-Jun-13 22:31N 33°37' W 118°19'816.2
2018-Jun-13 22:00N 33°45' W 118°17'0 0.7
2018-Jun-13 21:30N 33°45' W 118°16'0 0.0
2018-Jun-13 21:00N 33°45' W 118°16'0 0.0
2018-Jun-13 20:30N 33°45' W 118°16'0 0.0
2018-Jun-13 20:00N 33°45' W 118°16'0 0.0
2018-Jun-13 19:30N 33°45' W 118°16'510.0
2018-Jun-13 19:01N 33°40' W 118°16'1326.0
2018-Jun-13 18:30N 33°30' W 118°26'4 6.0
2018-Jun-13 17:47N 33°27' W 118°30'621.4
2018-Jun-13 17:30N 33°25' W 118°23'5 9.7
2018-Jun-13 16:59N 33°21' W 118°19'1124.5
2018-Jun-13 16:30N 33°32' W 118°17'1122.4
2018-Jun-13 16:00N 33°43' W 118°16'1 2.9
2018-Jun-13 15:30N 33°45' W 118°16'0 0.0
2018-Jun-13 15:00N 33°45' W 118°16'0 0.0
2018-Jun-13 14:30N 33°45' W 118°16'0 0.0
2018-Jun-13 14:00N 33°45' W 118°16'0 0.0
2018-Jun-13 13:30N 33°45' W 118°16'0 0.0
2018-Jun-13 13:00N 33°45' W 118°16'0 0.0
2018-Jun-13 12:30N 33°45' W 118°16'  
Track history (hours):
 
Tides and Currents Weather Stations Pressure Air Temp Water Temp Dewpoint Dewpoint Depression Visibility Wind Speed Wind Dir Waves Ship Positions

Avalon Express

Owner: RGWT INC, San Pedro, CA. More information available from US FCC via Universal Licensing System and Coast Guard Vessel Documentation Center.

Last reported at 2018-Jun-23 02:30 UTC. Time now 2018-Jun-23 02:56 UTC.
Position N 33°45' W 118°16'.

Length 37 m; draft 3 m.

Type: High speed craft. MMSI: 367192940.

Date/timePositionNaut miles runAvg speedWind from/ knotsBaromVisibWave heightAir tempDewpointWater temp
2018-Jun-23 02:30N 33°45' W 118°16'0 0.0
2018-Jun-23 02:00N 33°45' W 118°16'2 3.2
2018-Jun-23 01:31N 33°43' W 118°16'1223.2
2018-Jun-23 01:00N 33°32' W 118°17'11 8.1
2018-Jun-22 23:42N 33°21' W 118°19'525.8
2018-Jun-22 23:30N 33°26' W 118°18'1325.9
2018-Jun-22 23:01N 33°39' W 118°16'612.6
2018-Jun-22 22:30N 33°45' W 118°16'0 0.0
2018-Jun-22 22:00N 33°45' W 118°16'0 0.0
2018-Jun-22 21:30N 33°45' W 118°16'0 0.0
2018-Jun-22 21:00N 33°45' W 118°16'2 4.7
2018-Jun-22 20:31N 33°43' W 118°15'2113.4
2018-Jun-22 18:58N 33°22' W 118°19'1124.9
2018-Jun-22 18:30N 33°34' W 118°17'1020.0
2018-Jun-22 18:00N 33°44' W 118°16'1 2.7
2018-Jun-22 17:31N 33°45' W 118°16'0 0.0
2018-Jun-22 17:00N 33°45' W 118°16'0 0.2
2018-Jun-22 16:30N 33°45' W 118°16'0 0.0
2018-Jun-22 16:00N 33°45' W 118°16'0 0.0
2018-Jun-22 15:30N 33°45' W 118°16'0 0.1
2018-Jun-22 15:01N 33°45' W 118°16'0 0.1
2018-Jun-22 14:30N 33°45' W 118°16'0 0.0
2018-Jun-22 14:00N 33°45' W 118°16'0 0.0
2018-Jun-22 13:31N 33°45' W 118°16'0 0.1
2018-Jun-22 13:00N 33°45' W 118°16'0 0.0
2018-Jun-22 02:49N 33°45' W 118°16'0 0.2
2018-Jun-22 02:30N 33°45' W 118°16'0 0.2
2018-Jun-22 02:00N 33°45' W 118°16'1 2.6
2018-Jun-22 01:31N 33°44' W 118°16'1122.6
2018-Jun-22 01:00N 33°32' W 118°17'1110.9
2018-Jun-22 00:01N 33°22' W 118°19'1010.3
2018-Jun-21 23:01N 33°27' W 118°30'015.3
2018-Jun-21 23:00N 33°27' W 118°29'1225.5
2018-Jun-21 22:31N 33°37' W 118°20'815.6
2018-Jun-21 22:01N 33°44' W 118°17'1 1.5
2018-Jun-21 21:31N 33°45' W 118°16'0 0.0
2018-Jun-21 21:01N 33°45' W 118°16'3 6.5
2018-Jun-21 20:31N 33°42' W 118°16'1223.3
2018-Jun-21 20:00N 33°30' W 118°18'9 7.9
2018-Jun-21 18:54N 33°21' W 118°19'1024.9
2018-Jun-21 18:30N 33°31' W 118°17'1223.5
2018-Jun-21 18:00N 33°43' W 118°16'2 3.7
2018-Jun-21 17:31N 33°45' W 118°16'0 0.2
2018-Jun-21 17:01N 33°45' W 118°16'0 0.0
2018-Jun-21 16:31N 33°45' W 118°16'0 0.0
2018-Jun-21 16:01N 33°45' W 118°16'0 0.0
2018-Jun-21 15:31N 33°45' W 118°16'0 0.0
2018-Jun-21 15:01N 33°45' W 118°16'0 0.0
2018-Jun-21 14:30N 33°45' W 118°16'0 0.0
2018-Jun-21 14:01N 33°45' W 118°16'0 0.1
2018-Jun-21 13:31N 33°45' W 118°16'0 0.0
2018-Jun-21 13:01N 33°45' W 118°16'0 0.1
2018-Jun-21 12:31N 33°45' W 118°16'0 0.0
2018-Jun-21 12:01N 33°45' W 118°16'0 0.0
2018-Jun-21 02:42N 33°45' W 118°16'0 0.0
2018-Jun-21 02:30N 33°45' W 118°16'0 0.0
2018-Jun-21 02:00N 33°45' W 118°16'1 2.7
2018-Jun-21 01:31N 33°44' W 118°16'1122.3
2018-Jun-21 01:00N 33°32' W 118°17'1111.4
2018-Jun-21 00:03N 33°21' W 118°19'125.3
2018-Jun-21 00:00N 33°22' W 118°20'9 8.9
2018-Jun-20 22:59N 33°29' W 118°28'1225.6
2018-Jun-20 22:30N 33°38' W 118°19'713.7
2018-Jun-20 22:00N 33°45' W 118°17'0 0.6
2018-Jun-20 21:30N 33°45' W 118°16'0 0.0
2018-Jun-20 21:00N 33°45' W 118°16'2 4.4
2018-Jun-20 20:31N 33°43' W 118°15'2213.4
2018-Jun-20 18:54N 33°22' W 118°19'1024.8
2018-Jun-20 18:31N 33°31' W 118°17'1223.6
2018-Jun-20 18:00N 33°43' W 118°16'2 4.1
2018-Jun-20 17:30N 33°45' W 118°16'0 0.0
2018-Jun-20 17:00N 33°45' W 118°16'0 0.2
2018-Jun-20 16:30N 33°45' W 118°16'0 0.0
2018-Jun-20 16:00N 33°45' W 118°16'0 0.0
2018-Jun-20 15:30N 33°45' W 118°16'0 0.0
2018-Jun-20 15:00N 33°45' W 118°16'0 0.0
2018-Jun-20 14:30N 33°45' W 118°16'0 0.0
2018-Jun-20 14:00N 33°45' W 118°16'0 0.1
2018-Jun-20 13:30N 33°45' W 118°16'0 0.1
2018-Jun-20 13:00N 33°45' W 118°16'0 0.0
2018-Jun-20 12:30N 33°45' W 118°16'0 0.0
2018-Jun-20 12:00N 33°45' W 118°16'0 0.0
2018-Jun-20 11:30N 33°45' W 118°16'0 0.0
2018-Jun-20 02:56N 33°45' W 118°16'0 0.3
2018-Jun-20 02:30N 33°45' W 118°16'0 0.0
2018-Jun-20 02:00N 33°45' W 118°16'2 3.3
2018-Jun-20 01:30N 33°43' W 118°16'1122.6
2018-Jun-20 01:00N 33°32' W 118°17'10 9.5
2018-Jun-19 23:59N 33°23' W 118°20'9 7.5
2018-Jun-19 22:51N 33°30' W 118°26'824.8
2018-Jun-19 22:30N 33°36' W 118°19'816.6
2018-Jun-19 22:00N 33°44' W 118°17'1 1.3
2018-Jun-19 21:30N 33°45' W 118°16'0 0.0
2018-Jun-19 21:01N 33°45' W 118°16'3 5.7
2018-Jun-19 20:31N 33°42' W 118°15'2214.3
2018-Jun-19 19:00N 33°21' W 118°19'1123.1
2018-Jun-19 18:30N 33°32' W 118°17'1122.5
2018-Jun-19 18:00N 33°43' W 118°16'1 3.0
2018-Jun-19 17:30N 33°45' W 118°16'0 0.0
2018-Jun-19 17:00N 33°45' W 118°16'0 0.2
2018-Jun-19 16:30N 33°45' W 118°16'0 0.1
2018-Jun-19 16:00N 33°45' W 118°16'0 0.1
2018-Jun-19 15:30N 33°45' W 118°16'0 0.1
2018-Jun-19 15:00N 33°45' W 118°16'0 0.0
2018-Jun-19 14:30N 33°45' W 118°16'0 0.1
2018-Jun-19 14:00N 33°45' W 118°16'0 0.0
2018-Jun-19 13:30N 33°45' W 118°16'0 0.0
2018-Jun-19 13:00N 33°45' W 118°16'0 0.1
2018-Jun-19 12:30N 33°45' W 118°16'0 0.0
2018-Jun-19 12:00N 33°45' W 118°16'0 0.0
2018-Jun-19 03:45N 33°45' W 118°16'0 0.0
2018-Jun-19 03:30N 33°45' W 118°16'0 0.2
2018-Jun-19 03:00N 33°45' W 118°16'1 2.0
2018-Jun-19 02:30N 33°44' W 118°16'14 4.8
2018-Jun-18 23:38N 33°31' W 118°24'325.3
2018-Jun-18 23:30N 33°34' W 118°21'1121.6
2018-Jun-18 23:01N 33°44' W 118°16'1 2.8
2018-Jun-18 22:31N 33°45' W 118°16'0 0.0
2018-Jun-18 22:00N 33°45' W 118°16'4 9.0
2018-Jun-18 21:31N 33°40' W 118°16'1825.3
2018-Jun-18 20:47N 33°23' W 118°21'6 7.9
2018-Jun-18 20:03N 33°28' W 118°18'125.8
2018-Jun-18 20:00N 33°29' W 118°18'1225.2
2018-Jun-18 19:31N 33°41' W 118°15'4 7.2
2018-Jun-18 19:00N 33°45' W 118°16'0 0.0
2018-Jun-18 18:30N 33°45' W 118°16'0 0.2
2018-Jun-18 18:00N 33°45' W 118°16'0 0.0
2018-Jun-18 17:30N 33°45' W 118°16'0 0.0
2018-Jun-18 17:00N 33°45' W 118°16'0 0.0
2018-Jun-18 16:30N 33°45' W 118°16'0 0.0
2018-Jun-18 16:00N 33°45' W 118°16'0 0.1
2018-Jun-18 15:30N 33°45' W 118°16'0 0.1
2018-Jun-18 15:00N 33°45' W 118°16'0 0.0
2018-Jun-18 14:30N 33°45' W 118°16'0 0.0
2018-Jun-18 14:00N 33°45' W 118°16'0 0.0
2018-Jun-18 13:30N 33°45' W 118°16'0 0.0
2018-Jun-18 04:16N 33°45' W 118°16'0 0.4
2018-Jun-18 04:01N 33°45' W 118°16'0 0.1
2018-Jun-18 03:31N 33°45' W 118°16'0 0.1
2018-Jun-18 03:01N 33°45' W 118°16'1 2.7
2018-Jun-18 02:31N 33°44' W 118°16'13 6.9
2018-Jun-18 00:36N 33°32' W 118°24'226.0
2018-Jun-18 00:30N 33°34' W 118°23'1121.7
2018-Jun-18 00:00N 33°43' W 118°16'2 3.0
2018-Jun-17 23:30N 33°45' W 118°16'0 0.0
2018-Jun-17 23:00N 33°45' W 118°16'0 0.0
2018-Jun-17 22:30N 33°45' W 118°16'4 7.3
2018-Jun-17 22:01N 33°41' W 118°16'13 7.5
2018-Jun-17 20:17N 33°31' W 118°25'725.6
2018-Jun-17 20:00N 33°37' W 118°20'816.3
2018-Jun-17 19:30N 33°45' W 118°17'0 0.5
2018-Jun-17 19:00N 33°45' W 118°16'0 0.0
2018-Jun-17 18:30N 33°45' W 118°16'0 0.0
2018-Jun-17 18:00N 33°45' W 118°16'4 8.1
2018-Jun-17 17:30N 33°41' W 118°16'12 7.2
2018-Jun-17 15:49N 33°31' W 118°25'825.8
2018-Jun-17 15:30N 33°37' W 118°19'815.4
2018-Jun-17 15:00N 33°45' W 118°17'0 0.3
2018-Jun-17 14:30N 33°45' W 118°16'0 0.0
2018-Jun-17 14:00N 33°45' W 118°16'0 0.0
2018-Jun-17 13:30N 33°45' W 118°16'0 0.0
2018-Jun-17 08:31N 33°45' W 118°16'0 0.0
2018-Jun-17 08:30N 33°45' W 118°16'0 0.0
2018-Jun-17 08:00N 33°45' W 118°16'0 0.0
2018-Jun-17 07:30N 33°45' W 118°16'0 0.0
2018-Jun-17 07:00N 33°45' W 118°16'3 6.3
2018-Jun-17 06:31N 33°42' W 118°15'14 8.1
2018-Jun-17 04:46N 33°28' W 118°19'725.7
2018-Jun-17 04:31N 33°35' W 118°17'918.3
2018-Jun-17 04:01N 33°44' W 118°17'1 1.8
2018-Jun-17 03:30N 33°45' W 118°16'4 8.0
2018-Jun-17 03:00N 33°41' W 118°15'2012.0
2018-Jun-17 01:19N 33°21' W 118°19'822.3
2018-Jun-17 00:58N 33°29' W 118°18'1224.8
2018-Jun-17 00:31N 33°40' W 118°15'5 9.8
2018-Jun-17 00:00N 33°45' W 118°16'0 0.0
2018-Jun-16 23:30N 33°45' W 118°16'0 0.0
2018-Jun-16 23:00N 33°45' W 118°16'0 0.0
2018-Jun-16 22:30N 33°45' W 118°16'0 0.0
2018-Jun-16 22:00N 33°45' W 118°16'0 0.0
2018-Jun-16 21:30N 33°45' W 118°16'714.5
2018-Jun-16 21:00N 33°38' W 118°16'12 8.7
2018-Jun-16 19:34N 33°25' W 118°19'225.4
2018-Jun-16 19:30N 33°27' W 118°18'1225.0
2018-Jun-16 19:01N 33°39' W 118°16'611.4
2018-Jun-16 18:30N 33°45' W 118°16'1 2.4
2018-Jun-16 18:00N 33°44' W 118°16'611.6
2018-Jun-16 17:31N 33°38' W 118°17'10 5.9
2018-Jun-16 15:53N 33°31' W 118°26'924.9
2018-Jun-16 15:30N 33°39' W 118°19'612.9
2018-Jun-16 15:00N 33°45' W 118°16'0 0.1
2018-Jun-16 14:30N 33°45' W 118°16'0 0.0
2018-Jun-16 14:00N 33°45' W 118°16'0 0.0
2018-Jun-16 13:30N 33°45' W 118°16'0 0.0
2018-Jun-16 07:06N 33°45' W 118°16'0 0.0
2018-Jun-16 07:00N 33°45' W 118°16'0 0.0
2018-Jun-16 06:31N 33°45' W 118°16'0 0.0
2018-Jun-16 06:01N 33°45' W 118°16'714.0
2018-Jun-16 05:30N 33°38' W 118°15'1625.7
2018-Jun-16 04:53N 33°22' W 118°19'2 3.5
2018-Jun-16 04:24N 33°21' W 118°19'921.7
2018-Jun-16 04:00N 33°27' W 118°26'3 5.3
2018-Jun-16 03:22N 33°27' W 118°30'925.5
2018-Jun-16 03:00N 33°35' W 118°23'1121.3
2018-Jun-16 02:30N 33°43' W 118°16'1 2.9
2018-Jun-16 02:00N 33°45' W 118°16'0 0.0
2018-Jun-16 01:30N 33°45' W 118°16'0 0.0
2018-Jun-16 01:00N 33°45' W 118°16'0 0.9
2018-Jun-16 00:30N 33°44' W 118°17'816.6
2018-Jun-16 00:00N 33°36' W 118°19'13 9.4
2018-Jun-15 22:37N 33°27' W 118°30'523.2
2018-Jun-15 22:26N 33°30' W 118°26'1125.5
2018-Jun-15 22:00N 33°39' W 118°18'612.8
2018-Jun-15 21:31N 33°45' W 118°16'0 0.0
2018-Jun-15 21:00N 33°45' W 118°16'0 0.0
2018-Jun-15 20:30N 33°45' W 118°16'3 5.5
2018-Jun-15 20:01N 33°42' W 118°15'15 7.3
2018-Jun-15 17:57N 33°31' W 118°26'1124.9
2018-Jun-15 17:30N 33°39' W 118°18'612.0
2018-Jun-15 17:00N 33°45' W 118°16'0 0.0
2018-Jun-15 16:30N 33°45' W 118°16'0 0.0
2018-Jun-15 16:00N 33°45' W 118°16'0 0.0
2018-Jun-15 15:30N 33°45' W 118°16'0 0.0
2018-Jun-15 15:00N 33°45' W 118°16'0 0.0
2018-Jun-15 14:30N 33°45' W 118°16'0 0.0
2018-Jun-15 14:00N 33°45' W 118°16'0 0.0
2018-Jun-15 13:30N 33°45' W 118°16'0 0.0
2018-Jun-15 13:00N 33°45' W 118°16'0 0.0
2018-Jun-15 12:30N 33°45' W 118°16'0 0.0
2018-Jun-15 03:14N 33°45' W 118°16'0 0.0
2018-Jun-15 03:00N 33°45' W 118°16'0 0.0
2018-Jun-15 02:30N 33°45' W 118°16'0 0.0
2018-Jun-15 02:00N 33°45' W 118°16'2 3.0
2018-Jun-15 01:31N 33°43' W 118°16'1122.6
2018-Jun-15 01:01N 33°32' W 118°17'1223.0
2018-Jun-15 00:30N 33°21' W 118°19'3 5.4
2018-Jun-15 00:00N 33°23' W 118°21'816.2
2018-Jun-14 23:29N 33°27' W 118°30'3 7.2
2018-Jun-14 23:00N 33°29' W 118°27'1325.2
2018-Jun-14 22:31N 33°39' W 118°18'611.6
2018-Jun-14 22:00N 33°45' W 118°16'0 0.1
2018-Jun-14 21:30N 33°45' W 118°16'0 0.0
2018-Jun-14 21:00N 33°45' W 118°16'0 0.0
2018-Jun-14 20:30N 33°45' W 118°16'0 0.0
2018-Jun-14 20:00N 33°45' W 118°16'0 0.0
2018-Jun-14 19:30N 33°45' W 118°16'510.4
2018-Jun-14 19:00N 33°40' W 118°17'1525.9
2018-Jun-14 18:26N 33°28' W 118°28'2 3.0
2018-Jun-14 17:46N 33°27' W 118°30'621.3
2018-Jun-14 17:30N 33°25' W 118°23'610.1
2018-Jun-14 16:58N 33°21' W 118°19'1022.4
2018-Jun-14 16:30N 33°31' W 118°17'1224.4
2018-Jun-14 16:01N 33°43' W 118°16'2 4.3
2018-Jun-14 15:30N 33°45' W 118°16'0 0.0
2018-Jun-14 15:00N 33°45' W 118°16'0 0.0
2018-Jun-14 14:30N 33°45' W 118°16'0 0.0
2018-Jun-14 14:00N 33°45' W 118°16'0 0.0
2018-Jun-14 13:30N 33°45' W 118°16'0 0.0
2018-Jun-14 13:00N 33°45' W 118°16'0 0.0
2018-Jun-14 12:30N 33°45' W 118°16'0 0.0
2018-Jun-14 03:22N 33°45' W 118°16'0 0.0
2018-Jun-14 03:00N 33°45' W 118°16'0 0.0
2018-Jun-14 02:30N 33°45' W 118°16'0 0.0
2018-Jun-14 02:00N 33°45' W 118°16'3 6.7
2018-Jun-14 01:30N 33°42' W 118°15'1121.3
2018-Jun-14 01:00N 33°31' W 118°17'1119.9
2018-Jun-14 00:28N 33°21' W 118°19'3 5.6
2018-Jun-14 00:00N 33°23' W 118°21'8 8.7
2018-Jun-13 23:03N 33°27' W 118°29'112.2
2018-Jun-13 23:00N 33°27' W 118°29'1225.5
2018-Jun-13 22:31N 33°37' W 118°19'816.2
2018-Jun-13 22:00N 33°45' W 118°17'0 0.7
2018-Jun-13 21:30N 33°45' W 118°16'0 0.0
2018-Jun-13 21:00N 33°45' W 118°16'0 0.0
2018-Jun-13 20:30N 33°45' W 118°16'0 0.0
2018-Jun-13 20:00N 33°45' W 118°16'0 0.0
2018-Jun-13 19:30N 33°45' W 118°16'510.0
2018-Jun-13 19:01N 33°40' W 118°16'1326.0
2018-Jun-13 18:30N 33°30' W 118°26'4 6.0
2018-Jun-13 17:47N 33°27' W 118°30'621.4
2018-Jun-13 17:30N 33°25' W 118°23'5 9.7
2018-Jun-13 16:59N 33°21' W 118°19'1124.5
2018-Jun-13 16:30N 33°32' W 118°17'1122.4
2018-Jun-13 16:00N 33°43' W 118°16'1 2.9
2018-Jun-13 15:30N 33°45' W 118°16'0 0.0
2018-Jun-13 15:00N 33°45' W 118°16'0 0.0
2018-Jun-13 14:30N 33°45' W 118°16'0 0.0
2018-Jun-13 14:00N 33°45' W 118°16'0 0.0
2018-Jun-13 13:30N 33°45' W 118°16'0 0.0
2018-Jun-13 13:00N 33°45' W 118°16'0 0.0
2018-Jun-13 12:30N 33°45' W 118°16'  

Dump ship's entire track history